Time;durP1;ratioP1;P1;durP2;ratioP2;P2;SDS_P1;SDS_P2;PMS_P1;PMS_P2;Temp;Humidity;BMP_temperature;BMP_pressure;BME280_temperature;BME280_humidity;BME280_pressure;Samples;Min_cycle;Max_cycle;Signal;HPM_P1;HPM_P2
2020/12/13 00:02:20;;;;;;;34.83;16.05;;;;;;;;;;4984959;28;20026;-56
2020/12/13 00:04:46;;;;;;;26.25;15.75;;;;;;;;;;4985117;28;20434;-58
2020/12/13 00:07:11;;;;;;;25.17;14.88;;;;;;;;;;4985937;28;20014;-58
2020/12/13 00:09:36;;;;;;;27.88;15.27;;;;;;;;;;4985618;28;20011;-55
2020/12/13 00:12:05;;;;;;;27.95;14.55;;;;;;;;;;4985323;28;20378;-55
2020/12/13 00:14:31;;;;;;;27.80;14.73;;;;;;;;;;4986895;28;20030;-55
2020/12/13 00:16:56;;;;;;;28.35;15.38;;;;;;;;;;4986951;28;20023;-56
2020/12/13 00:19:21;;;;;;;26.38;15.40;;;;;;;;;;4986225;28;20018;-57
2020/12/13 00:21:53;;;;;;;26.58;14.90;;;;;;;;;;4986871;28;20078;-57
2020/12/13 00:24:19;;;;;;;31.48;15.20;;;;;;;;;;4986253;28;20050;-58
2020/12/13 00:26:44;;;;;;;25.42;15.05;;;;;;;;;;4986340;28;20021;-57
2020/12/13 00:29:09;;;;;;;25.55;14.43;;;;;;;;;;4986332;28;20030;-57
2020/12/13 00:31:35;;;;;;;29.80;14.60;;;;;;;;;;4986573;28;20014;-57
2020/12/13 00:34:00;;;;;;;24.10;14.80;;;;;;;;;;4986271;28;20021;-57
2020/12/13 00:36:25;;;;;;;25.33;14.85;;;;;;;;;;4978128;28;20066;-56
2020/12/13 00:38:51;;;;;;;26.52;14.90;;;;;;;;;;4973865;28;20486;-56
2020/12/13 00:41:16;;;;;;;26.05;14.45;;;;;;;;;;4972870;28;20030;-57
2020/12/13 00:43:41;;;;;;;27.05;14.60;;;;;;;;;;4973580;28;20019;-57
2020/12/13 00:46:06;;;;;;;28.25;14.48;;;;;;;;;;4973992;28;20027;-55
2020/12/13 00:48:32;;;;;;;25.15;15.00;;;;;;;;;;4972770;28;20019;-55
2020/12/13 00:50:57;;;;;;;22.23;14.07;;;;;;;;;;4973710;28;20467;-58
2020/12/13 00:53:22;;;;;;;24.27;15.07;;;;;;;;;;4973256;28;20491;-57
2020/12/13 00:55:48;;;;;;;24.80;14.57;;;;;;;;;;4973148;28;20022;-57
2020/12/13 00:58:13;;;;;;;22.90;14.35;;;;;;;;;;4973342;28;20007;-57
2020/12/13 01:00:38;;;;;;;23.77;14.18;;;;;;;;;;4973203;28;20014;-60
2020/12/13 01:03:03;;;;;;;22.50;14.00;;;;;;;;;;4973154;28;20054;-55
2020/12/13 01:05:29;;;;;;;22.33;15.23;;;;;;;;;;4973056;28;20479;-55
2020/12/13 01:07:54;;;;;;;21.05;14.15;;;;;;;;;;4973401;28;20480;-54
2020/12/13 01:10:19;;;;;;;22.17;15.23;;;;;;;;;;4972707;28;20442;-56
2020/12/13 01:12:45;;;;;;;26.27;14.75;;;;;;;;;;4972943;28;20118;-56
2020/12/13 01:15:10;;;;;;;23.00;14.60;;;;;;;;;;4973353;28;20033;-56
2020/12/13 01:17:35;;;;;;;20.85;13.90;;;;;;;;;;4972574;28;20054;-55
2020/12/13 01:20:01;;;;;;;21.13;14.02;;;;;;;;;;4972937;28;20475;-54
2020/12/13 01:22:26;;;;;;;21.15;14.95;;;;;;;;;;4972580;28;20015;-55
2020/12/13 01:24:51;;;;;;;22.55;13.80;;;;;;;;;;4972484;28;20138;-58
2020/12/13 01:27:17;;;;;;;23.02;15.68;;;;;;;;;;4973094;28;20029;-52
2020/12/13 01:29:42;;;;;;;22.67;14.13;;;;;;;;;;4972493;28;20038;-56
2020/12/13 01:32:07;;;;;;;23.52;14.52;;;;;;;;;;4972947;28;20018;-57
2020/12/13 01:34:32;;;;;;;22.95;14.02;;;;;;;;;;4972876;28;20094;-57
2020/12/13 01:36:59;;;;;;;19.50;13.48;;;;;;;;;;4972613;28;20026;-58
2020/12/13 01:39:24;;;;;;;19.65;13.60;;;;;;;;;;4971326;28;20019;-56
2020/12/13 01:41:55;;;;;;;21.40;13.77;;;;;;;;;;4972660;28;20054;-55
2020/12/13 01:44:20;;;;;;;21.27;13.70;;;;;;;;;;4971800;28;20026;-56
2020/12/13 01:46:47;;;;;;;19.05;13.88;;;;;;;;;;4972014;28;20077;-57
2020/12/13 01:49:13;;;;;;;21.80;14.32;;;;;;;;;;4971698;28;20015;-57
2020/12/13 01:54:16;;;;;;;21.52;13.30;;;;;;;;;;4971988;28;20031;-57
2020/12/13 01:56:44;;;;;;;19.92;13.32;;;;;;;;;;4972150;28;20035;-56
2020/12/13 01:59:12;;;;;;;19.60;13.48;;;;;;;;;;4972085;28;20090;-57
2020/12/13 02:01:38;;;;;;;22.30;14.40;;;;;;;;;;4970572;28;20025;-58
2020/12/13 02:04:05;;;;;;;20.25;13.52;;;;;;;;;;4971773;28;20031;-62
2020/12/13 02:06:31;;;;;;;20.50;14.40;;;;;;;;;;4971187;28;20073;-57
2020/12/13 02:08:56;;;;;;;21.25;13.73;;;;;;;;;;4971775;28;20487;-56
2020/12/13 02:11:22;;;;;;;19.23;13.68;;;;;;;;;;4971841;28;20057;-57
2020/12/13 02:13:48;;;;;;;18.23;13.48;;;;;;;;;;4971542;28;20035;-58
2020/12/13 02:16:13;;;;;;;21.00;13.40;;;;;;;;;;4972042;28;20026;-57
2020/12/13 02:18:41;;;;;;;18.70;13.18;;;;;;;;;;4970983;28;20352;-56
2020/12/13 02:21:07;;;;;;;17.92;13.10;;;;;;;;;;4971801;28;20106;-56
2020/12/13 02:23:32;;;;;;;18.83;13.65;;;;;;;;;;4971122;28;20603;-55
2020/12/13 02:25:57;;;;;;;20.63;13.60;;;;;;;;;;4971279;28;20578;-56
2020/12/13 02:28:23;;;;;;;20.02;13.38;;;;;;;;;;4971483;28;20538;-56
2020/12/13 02:30:48;;;;;;;19.52;13.15;;;;;;;;;;4971539;28;20345;-56
2020/12/13 02:33:14;;;;;;;21.02;13.57;;;;;;;;;;4968026;28;20061;-54
2020/12/13 02:35:39;;;;;;;18.88;13.43;;;;;;;;;;4971226;28;20073;-56
2020/12/13 02:38:04;;;;;;;19.80;13.60;;;;;;;;;;4971630;28;20025;-56
2020/12/13 02:40:30;;;;;;;18.65;13.23;;;;;;;;;;4970279;28;20025;-54
2020/12/13 02:42:55;;;;;;;20.05;13.60;;;;;;;;;;4971216;28;20023;-54
2020/12/13 02:45:20;;;;;;;19.65;13.07;;;;;;;;;;4970542;28;20034;-57
2020/12/13 02:47:46;;;;;;;18.15;13.13;;;;;;;;;;4970780;28;20015;-57
2020/12/13 02:50:11;;;;;;;19.20;13.13;;;;;;;;;;4971245;28;20029;-55
2020/12/13 02:52:36;;;;;;;17.83;13.20;;;;;;;;;;4970785;28;20030;-57
2020/12/13 02:55:02;;;;;;;21.38;13.68;;;;;;;;;;4970734;28;20479;-58
2020/12/13 02:57:27;;;;;;;19.05;12.98;;;;;;;;;;4971131;28;20041;-56
2020/12/13 02:59:52;;;;;;;19.90;14.00;;;;;;;;;;4970664;28;20023;-54
2020/12/13 03:02:17;;;;;;;19.02;13.15;;;;;;;;;;4970069;28;20029;-54
2020/12/13 03:04:43;;;;;;;17.52;12.82;;;;;;;;;;4970910;28;20030;-56
2020/12/13 03:07:11;;;;;;;18.55;13.27;;;;;;;;;;4971013;28;20026;-54
2020/12/13 03:09:36;;;;;;;20.83;13.55;;;;;;;;;;4970225;28;20050;-54
2020/12/13 03:12:02;;;;;;;18.65;12.93;;;;;;;;;;4971085;28;20066;-57
2020/12/13 03:14:27;;;;;;;17.88;13.13;;;;;;;;;;4970314;28;20018;-57
2020/12/13 03:16:52;;;;;;;19.27;14.25;;;;;;;;;;4970262;28;20019;-56
2020/12/13 03:19:18;;;;;;;18.67;12.95;;;;;;;;;;4970798;28;20015;-57
2020/12/13 03:21:43;;;;;;;18.63;12.52;;;;;;;;;;4970589;28;20031;-55
2020/12/13 03:24:10;;;;;;;16.73;12.80;;;;;;;;;;4970138;28;20046;-54
2020/12/13 03:26:36;;;;;;;20.10;13.68;;;;;;;;;;4970654;28;20153;-55
2020/12/13 03:29:01;;;;;;;19.83;13.65;;;;;;;;;;4970326;28;20114;-56
2020/12/13 03:31:26;;;;;;;19.17;13.30;;;;;;;;;;4970371;28;20058;-56
2020/12/13 03:33:51;;;;;;;19.20;13.52;;;;;;;;;;4970670;28;20007;-56
2020/12/13 03:36:17;;;;;;;19.70;13.70;;;;;;;;;;4970136;28;20092;-56
2020/12/13 03:38:42;;;;;;;18.90;13.10;;;;;;;;;;4970614;28;20019;-57
2020/12/13 03:41:08;;;;;;;19.45;13.40;;;;;;;;;;4970976;28;20085;-57
2020/12/13 03:43:33;;;;;;;17.60;12.23;;;;;;;;;;4970113;28;20033;-55
2020/12/13 03:45:58;;;;;;;19.85;13.18;;;;;;;;;;4970446;28;20042;-57
2020/12/13 03:48:23;;;;;;;18.05;12.90;;;;;;;;;;4970109;28;20062;-55
2020/12/13 03:50:49;;;;;;;19.10;13.60;;;;;;;;;;4970043;28;20030;-55
2020/12/13 03:53:14;;;;;;;21.10;13.45;;;;;;;;;;4970314;28;20130;-57
2020/12/13 03:55:40;;;;;;;20.33;14.30;;;;;;;;;;4970682;28;20054;-57
2020/12/13 03:58:06;;;;;;;19.70;13.45;;;;;;;;;;4970069;28;20042;-56
2020/12/13 04:00:31;;;;;;;19.35;12.45;;;;;;;;;;4970488;28;20015;-56
2020/12/13 04:02:57;;;;;;;20.38;13.38;;;;;;;;;;4970400;28;20027;-55
2020/12/13 04:05:23;;;;;;;19.77;13.82;;;;;;;;;;4969835;28;20050;-55
2020/12/13 04:07:48;;;;;;;17.95;13.32;;;;;;;;;;4970234;28;20030;-55
2020/12/13 04:10:14;;;;;;;19.88;13.65;;;;;;;;;;4970461;28;20019;-56
2020/12/13 04:12:39;;;;;;;18.90;13.23;;;;;;;;;;4973500;28;20117;-54
2020/12/13 04:15:04;;;;;;;19.90;12.73;;;;;;;;;;4973975;28;20022;-55
2020/12/13 04:17:29;;;;;;;19.08;13.30;;;;;;;;;;4973752;28;20023;-54
2020/12/13 04:19:55;;;;;;;18.73;13.02;;;;;;;;;;4973519;28;20023;-53
2020/12/13 04:22:20;;;;;;;19.55;13.00;;;;;;;;;;4973554;28;20102;-54
2020/12/13 04:24:45;;;;;;;18.25;13.23;;;;;;;;;;4973622;28;20101;-56
2020/12/13 04:27:10;;;;;;;19.63;13.43;;;;;;;;;;4973511;28;20015;-55
2020/12/13 04:29:36;;;;;;;19.85;13.52;;;;;;;;;;4973660;28;20031;-52
2020/12/13 04:32:01;;;;;;;19.30;13.13;;;;;;;;;;4973715;28;20015;-54
2020/12/13 04:34:26;;;;;;;21.13;13.85;;;;;;;;;;4973030;28;20412;-54
2020/12/13 04:36:52;;;;;;;21.58;13.38;;;;;;;;;;4973529;28;20110;-56
2020/12/13 04:39:17;;;;;;;19.70;13.13;;;;;;;;;;4973203;28;20025;-53
2020/12/13 04:41:42;;;;;;;18.15;12.40;;;;;;;;;;4973457;28;20421;-55
2020/12/13 04:44:07;;;;;;;20.70;12.77;;;;;;;;;;4973451;28;20332;-54
2020/12/13 04:46:34;;;;;;;17.98;11.57;;;;;;;;;;4972741;28;20034;-57
2020/12/13 04:48:59;;;;;;;16.90;11.55;;;;;;;;;;4973321;28;20472;-54
2020/12/13 04:51:26;;;;;;;16.52;11.10;;;;;;;;;;4972976;28;20021;-55
2020/12/13 04:53:59;;;;;;;15.25;10.32;;;;;;;;;;4972813;28;20025;-55
2020/12/13 04:56:25;;;;;;;15.38;10.30;;;;;;;;;;4973135;28;20102;-57
2020/12/13 04:58:50;;;;;;;14.55;10.20;;;;;;;;;;4973308;28;20476;-57
2020/12/13 05:01:16;;;;;;;14.18;10.27;;;;;;;;;;4972039;28;20041;-57
2020/12/13 05:03:42;;;;;;;15.07;10.25;;;;;;;;;;4973119;28;20460;-56
2020/12/13 05:06:07;;;;;;;13.43;9.70;;;;;;;;;;4972611;28;20035;-56
2020/12/13 05:08:33;;;;;;;12.60;9.68;;;;;;;;;;4972465;28;20466;-56
2020/12/13 05:11:01;;;;;;;13.90;10.35;;;;;;;;;;4972760;28;20026;-56
2020/12/13 05:13:26;;;;;;;13.25;10.02;;;;;;;;;;4972538;28;20018;-60
2020/12/13 05:15:51;;;;;;;13.88;9.98;;;;;;;;;;4972569;28;20026;-58
2020/12/13 05:18:17;;;;;;;15.07;10.47;;;;;;;;;;4972749;28;20113;-56
2020/12/13 05:20:45;;;;;;;14.48;10.55;;;;;;;;;;4972827;28;20496;-65
2020/12/13 11:16:23;;;;;;;19.05;6.70;;;;;;;;;;5100813;27;20554;-57
2020/12/13 11:18:48;;;;;;;13.15;5.05;;;;;;;;;;5092693;28;20024;-58
2020/12/13 11:21:16;;;;;;;19.27;5.43;;;;;;;;;;5101966;28;20512;-59
2020/12/13 11:23:41;;;;;;;13.68;4.93;;;;;;;;;;5103991;28;20883;-60
2020/12/13 11:26:07;;;;;;;14.10;4.97;;;;;;;;;;5102490;28;20094;-60
2020/12/13 11:28:32;;;;;;;19.65;5.50;;;;;;;;;;5103817;28;21069;-59
2020/12/13 11:30:57;;;;;;;16.67;5.57;;;;;;;;;;5104080;28;20503;-61
2020/12/13 11:33:24;;;;;;;13.37;4.40;;;;;;;;;;5101321;28;21216;-60
2020/12/13 11:35:49;;;;;;;14.85;4.57;;;;;;;;;;5101578;28;20517;-60
2020/12/13 11:38:15;;;;;;;11.40;4.50;;;;;;;;;;5102992;28;20055;-60
2020/12/13 11:40:40;;;;;;;12.50;4.55;;;;;;;;;;5104247;28;20461;-60
2020/12/13 11:43:05;;;;;;;12.13;4.72;;;;;;;;;;5105250;28;20451;-59
2020/12/13 11:45:30;;;;;;;9.38;4.55;;;;;;;;;;5104340;28;20032;-60
2020/12/13 11:47:56;;;;;;;13.88;4.75;;;;;;;;;;5104469;28;20467;-60
2020/12/13 11:50:21;;;;;;;9.52;4.68;;;;;;;;;;5104774;28;20106;-61
2020/12/13 11:52:46;;;;;;;11.43;4.10;;;;;;;;;;5104889;28;20100;-62
2020/12/13 11:55:11;;;;;;;12.03;4.50;;;;;;;;;;5104510;28;20042;-59
2020/12/13 11:57:39;;;;;;;9.13;3.80;;;;;;;;;;5103436;28;20907;-58
2020/12/13 12:00:05;;;;;;;11.40;4.50;;;;;;;;;;5104714;28;20078;-58
2020/12/13 12:02:30;;;;;;;9.30;4.03;;;;;;;;;;5103105;28;20043;-58
2020/12/13 12:04:55;;;;;;;9.10;4.10;;;;;;;;;;5104762;28;20023;-57
2020/12/13 12:07:21;;;;;;;11.38;4.15;;;;;;;;;;5104683;28;20493;-59
2020/12/13 12:09:49;;;;;;;10.23;4.30;;;;;;;;;;5103255;28;20058;-59
2020/12/13 12:12:14;;;;;;;11.50;3.92;;;;;;;;;;5104129;28;20453;-59
2020/12/13 12:14:39;;;;;;;9.98;3.60;;;;;;;;;;5103624;28;20377;-59
2020/12/13 12:17:05;;;;;;;24.67;3.90;;;;;;;;;;5084378;28;20052;-57
2020/12/13 12:19:31;;;;;;;8.10;3.90;;;;;;;;;;5083799;28;20028;-56
2020/12/13 12:21:56;;;;;;;7.47;3.33;;;;;;;;;;5008755;28;1726738;-60
2020/12/13 12:24:22;;;;;;;7.05;3.60;;;;;;;;;;5034066;28;20036;-59
2020/12/13 12:26:50;;;;;;;6.07;3.83;;;;;;;;;;5021068;28;20018;-60
